Time;durP1;ratioP1;P1;durP2;ratioP2;P2;SDS_P1;SDS_P2;PMS_P1;PMS_P2;Temp;Humidity;BMP_temperature;BMP_pressure;BME280_temperature;BME280_humidity;BME280_pressure;Samples;Min_cycle;Max_cycle;Signal;HPM_P1;HPM_P2
2022/01/28 00:00:37;;;;;;;;;;;;;;;;;;5024382;28;20446;-66
2022/01/28 00:03:07;;;;;;;;;;;;;;;;;;5022780;28;19976;-66
2022/01/28 00:05:34;;;;;;;;;;;;;;;;;;5018762;28;19925;-66
2022/01/28 00:08:01;;;;;;;;;;;;;;;;;;5015389;28;19976;-66
2022/01/28 00:10:28;;;;;;;;;;;;;;;;;;5023704;28;20290;-66
2022/01/28 00:13:20;;;;;;;;;;;;;;;;;;5023141;28;19925;-66
2022/01/28 00:16:02;;;;;;;;;;;;;;;;;;5021145;28;19925;-66
2022/01/28 00:18:45;;;;;;;;;;;;;;;;;;5018763;28;19936;-66
2022/01/28 00:38:03;;;;;;;;;;;;;;;;;;5020117;28;19921;-67
2022/01/28 00:40:30;;;;;;;;;;;;;;;;;;5022157;28;19925;-66
2022/01/28 00:42:57;;;;;;;;;;;;;;;;;;5025338;28;19925;-66
2022/01/28 00:45:24;;;;;;;;;;;;;;;;;;5028734;28;19929;-66
2022/01/28 00:47:51;;;;;;;;;;;;;;;;;;5022574;28;19936;-66
2022/01/28 00:50:18;;;;;;;;;;;;;;;;;;5029587;28;19976;-66
2022/01/28 00:52:45;;;;;;;;;;;;;;;;;;5020602;28;19932;-66
2022/01/28 00:55:12;;;;;;;;;;;;;;;;;;5020293;28;20276;-66
2022/01/28 00:57:39;;;;;;;;;;;;;;;;;;5020097;28;19934;-66
2022/01/28 01:00:06;;;;;;;;;;;;;;;;;;5024396;28;19925;-66
2022/01/28 01:02:33;;;;;;;;;;;;;;;;;;5024791;28;19925;-66
2022/01/28 01:05:00;;;;;;;;;;;;;;;;;;5019288;28;20319;-66
2022/01/28 01:07:27;;;;;;;;;;;;;;;;;;5020444;28;19925;-66
2022/01/28 01:09:54;;;;;;;;;;;;;;;;;;5023393;28;19934;-66
2022/01/28 01:12:23;;;;;;;;;;;;;;;;;;5020267;28;19929;-66
2022/01/28 01:14:50;;;;;;;;;;;;;;;;;;5023795;28;19925;-66
2022/01/28 01:17:28;;;;;;;;;;;;;;;;;;5015502;28;19925;-66
2022/01/28 01:20:08;;;;;;;;;;;;;;;;;;5025624;28;19926;-67
2022/01/28 01:22:38;;;;;;;;;;;;;;;;;;5022750;28;20007;-67
2022/01/28 01:25:14;;;;;;;;;;;;;;;;;;5022868;28;20028;-67
2022/01/28 01:27:41;;;;;;;;;;;;;;;;;;5022636;28;20445;-66
2022/01/28 01:30:08;;;;;;;;;;;;;;;;;;5040111;22;19925;-64
2022/01/28 01:32:35;;;;;;;;;;;;;;;;;;5027484;28;19967;-64
2022/01/28 01:35:02;;;;;;;;;;;;;;;;;;5024577;28;19925;-65
2022/01/28 01:37:29;;;;;;;;;;;;;;;;;;5027714;28;19932;-65
2022/01/28 01:39:57;;;;;;;;;;;;;;;;;;5027682;28;19929;-65
2022/01/28 01:42:31;;;;;;;;;;;;;;;;;;5029880;28;19979;-65
2022/01/28 01:53:04;;;;;;;;;;;;;;;;;;4988382;28;19972;-64
2022/01/28 01:55:31;;;;;;;;;;;;;;;;;;5022598;28;19939;-65
2022/01/28 01:57:58;;;;;;;;;;;;;;;;;;5021549;28;19971;-64
2022/01/28 02:00:25;;;;;;;;;;;;;;;;;;5024681;28;20387;-65
2022/01/28 02:02:52;;;;;;;;;;;;;;;;;;5025286;28;19929;-64
2022/01/28 02:05:19;;;;;;;;;;;;;;;;;;5024723;28;19932;-65
2022/01/28 02:07:46;;;;;;;;;;;;;;;;;;5019247;28;19925;-64
2022/01/28 02:10:13;;;;;;;;;;;;;;;;;;5023823;28;19929;-64
2022/01/28 02:12:40;;;;;;;;;;;;;;;;;;5023815;28;20335;-64
2022/01/28 02:15:07;;;;;;;;;;;;;;;;;;5027409;28;19936;-64
2022/01/28 02:17:34;;;;;;;;;;;;;;;;;;5026507;28;20287;-64
2022/01/28 02:20:00;;;;;;;;;;;;;;;;;;5025610;28;19926;-65
2022/01/28 02:22:27;;;;;;;;;;;;;;;;;;5017490;28;19925;-64
2022/01/28 02:24:54;;;;;;;;;;;;;;;;;;5018286;28;19926;-64
2022/01/28 02:27:21;;;;;;;;;;;;;;;;;;5018710;28;19940;-64
2022/01/28 02:29:50;;;;;;;;;;;;;;;;;;5024026;28;19952;-64
2022/01/28 02:32:17;;;;;;;;;;;;;;;;;;5020365;28;19926;-64
2022/01/28 02:34:44;;;;;;;;;;;;;;;;;;5026036;28;19925;-65
2022/01/28 02:37:10;;;;;;;;;;;;;;;;;;5023585;28;19932;-65
2022/01/28 02:39:37;;;;;;;;;;;;;;;;;;5023581;28;19925;-65
2022/01/28 02:42:14;;;;;;;;;;;;;;;;;;5025307;28;20375;-65
2022/01/28 02:44:48;;;;;;;;;;;;;;;;;;5017898;28;19929;-65
2022/01/28 02:47:18;;;;;;;;;;;;;;;;;;5022201;28;20016;-65
2022/01/28 02:49:45;;;;;;;;;;;;;;;;;;5024277;28;19925;-65
2022/01/28 02:52:19;;;;;;;;;;;;;;;;;;5015120;28;20311;-65
2022/01/28 02:54:49;;;;;;;;;;;;;;;;;;5027060;28;20265;-65
2022/01/28 02:57:20;;;;;;;;;;;;;;;;;;5026198;28;19980;-65
2022/01/28 02:59:47;;;;;;;;;;;;;;;;;;5021655;28;19960;-65
2022/01/28 03:02:14;;;;;;;;;;;;;;;;;;5021963;28;19933;-65
2022/01/28 03:05:04;;;;;;;;;;;;;;;;;;5023363;28;20177;-65
2022/01/28 03:07:31;;;;;;;;;;;;;;;;;;5026708;28;19972;-65
2022/01/28 03:13:00;;;;;;;;;;;;;;;;;;5026043;28;20354;-64
2022/01/28 03:15:26;;;;;;;;;;;;;;;;;;5016320;28;20300;-64
2022/01/28 03:17:54;;;;;;;;;;;;;;;;;;5026095;28;19979;-65
2022/01/28 03:20:36;;;;;;;;;;;;;;;;;;5018587;28;19937;-65
2022/01/28 03:23:03;;;;;;;;;;;;;;;;;;5025389;28;21107;-65
2022/01/28 03:25:30;;;;;;;;;;;;;;;;;;5021156;28;19940;-65
2022/01/28 03:27:59;;;;;;;;;;;;;;;;;;5024843;28;19973;-65
2022/01/28 03:30:26;;;;;;;;;;;;;;;;;;5018798;28;19925;-65
2022/01/28 03:32:53;;;;;;;;;;;;;;;;;;5027945;28;19929;-64
2022/01/28 03:35:20;;;;;;;;;;;;;;;;;;5017617;28;19948;-65
2022/01/28 03:37:47;;;;;;;;;;;;;;;;;;5024990;28;19975;-65
2022/01/28 03:40:19;;;;;;;;;;;;;;;;;;5029230;28;20014;-64
2022/01/28 03:42:46;;;;;;;;;;;;;;;;;;5022642;28;20387;-64
2022/01/28 03:45:13;;;;;;;;;;;;;;;;;;5025083;28;20405;-64
2022/01/28 03:47:40;;;;;;;;;;;;;;;;;;5027020;28;19925;-64
2022/01/28 03:50:07;;;;;;;;;;;;;;;;;;5025230;28;19925;-64
2022/01/28 03:52:34;;;;;;;;;;;;;;;;;;5021987;28;20032;-64
2022/01/28 03:55:01;;;;;;;;;;;;;;;;;;5024729;28;19929;-64
2022/01/28 03:57:28;;;;;;;;;;;;;;;;;;5029236;28;19925;-64
2022/01/28 03:59:55;;;;;;;;;;;;;;;;;;5028402;28;20263;-64
2022/01/28 04:02:26;;;;;;;;;;;;;;;;;;5024790;28;20003;-64
2022/01/28 04:05:53;;;;;;;;;;;;;;;;;;5019380;28;19933;-64
2022/01/28 04:13:27;;;;;;;;;;;;;;;;;;5023968;28;19920;-65
2022/01/28 04:16:16;;;;;;;;;;;;;;;;;;5028463;28;19925;-65
2022/01/28 04:18:41;;;;;;;;;;;;;;;;;;5023413;28;20034;-65
2022/01/28 04:21:08;;;;;;;;;;;;;;;;;;5025418;28;20040;-65
2022/01/28 04:23:35;;;;;;;;;;;;;;;;;;5020501;28;19947;-65
2022/01/28 04:26:02;;;;;;;;;;;;;;;;;;5028423;28;20011;-65
2022/01/28 04:28:29;;;;;;;;;;;;;;;;;;5025545;28;19964;-63
2022/01/28 04:30:56;;;;;;;;;;;;;;;;;;5020730;28;19935;-65
2022/01/28 04:33:23;;;;;;;;;;;;;;;;;;5028824;28;19947;-65
2022/01/28 04:35:53;;;;;;;;;;;;;;;;;;5027153;28;19971;-65
2022/01/28 04:38:29;;;;;;;;;;;;;;;;;;5021627;28;20383;-65
2022/01/28 04:41:05;;;;;;;;;;;;;;;;;;5025534;28;19988;-65
2022/01/28 04:43:37;;;;;;;;;;;;;;;;;;5020528;28;20357;-65
2022/01/28 04:46:10;;;;;;;;;;;;;;;;;;5022352;28;19925;-65
2022/01/28 04:48:43;;;;;;;;;;;;;;;;;;5024905;28;19932;-64
2022/01/28 04:51:18;;;;;;;;;;;;;;;;;;5025662;28;20030;-64
2022/01/28 04:54:00;;;;;;;;;;;;;;;;;;5022825;28;19933;-64
2022/01/28 04:59:34;;;;;;;;;;;;;;;;;;5019100;28;20319;-65
2022/01/28 05:05:07;;;;;;;;;;;;;;;;;;5021834;28;20387;-65
2022/01/28 05:07:49;;;;;;;;;;;;;;;;;;5029085;28;19929;-64
2022/01/28 05:10:40;;;;;;;;;;;;;;;;;;5018023;28;19925;-64
2022/01/28 05:13:39;;;;;;;;;;;;;;;;;;5026697;28;20383;-64
2022/01/28 05:16:32;;;;;;;;;;;;;;;;;;5025511;28;20302;-64
2022/01/28 05:27:17;;;;;;;;;;;;;;;;;;5027142;28;19925;-65
2022/01/28 05:29:44;;;;;;;;;;;;;;;;;;5019422;28;19931;-65
2022/01/28 05:32:11;;;;;;;;;;;;;;;;;;5022274;28;19936;-65
2022/01/28 05:34:37;;;;;;;;;;;;;;;;;;5026299;28;19925;-65
2022/01/28 05:37:04;;;;;;;;;;;;;;;;;;5024933;28;19926;-65
2022/01/28 05:39:31;;;;;;;;;;;;;;;;;;5018363;28;19929;-65
2022/01/28 05:41:58;;;;;;;;;;;;;;;;;;5029658;28;20309;-65
2022/01/28 05:44:27;;;;;;;;;;;;;;;;;;5025058;28;19925;-65
2022/01/28 05:46:56;;;;;;;;;;;;;;;;;;5018770;28;19937;-64
2022/01/28 05:49:23;;;;;;;;;;;;;;;;;;5016232;28;19932;-64
2022/01/28 05:51:50;;;;;;;;;;;;;;;;;;5018071;28;20322;-64
2022/01/28 05:54:17;;;;;;;;;;;;;;;;;;5013293;28;20306;-64
2022/01/28 05:56:44;;;;;;;;;;;;;;;;;;5019245;28;20602;-65
2022/01/28 05:59:11;;;;;;;;;;;;;;;;;;5021251;28;19933;-65
2022/01/28 06:01:38;;;;;;;;;;;;;;;;;;5024694;28;19980;-64
2022/01/28 06:04:04;;;;;;;;;;;;;;;;;;5024589;28;20299;-64
2022/01/28 06:06:32;;;;;;;;;;;;;;;;;;5025246;28;19925;-64
2022/01/28 06:08:59;;;;;;;;;;;;;;;;;;5024476;28;20370;-65
2022/01/28 06:11:26;;;;;;;;;;;;;;;;;;5022919;28;19932;-64
2022/01/28 06:13:53;;;;;;;;;;;;;;;;;;5025732;28;19936;-64
2022/01/28 06:16:20;;;;;;;;;;;;;;;;;;5023012;28;20383;-65
2022/01/28 06:18:47;;;;;;;;;;;;;;;;;;5024401;28;19925;-65
2022/01/28 06:21:14;;;;;;;;;;;;;;;;;;5026337;28;19929;-64
2022/01/28 06:23:41;;;;;;;;;;;;;;;;;;5017842;28;20406;-65
2022/01/28 06:26:08;;;;;;;;;;;;;;;;;;5021086;28;19926;-65
2022/01/28 06:28:35;;;;;;;;;;;;;;;;;;5016072;28;19940;-64
2022/01/28 06:31:02;;;;;;;;;;;;;;;;;;5021517;28;19955;-65
2022/01/28 06:33:29;;;;;;;;;;;;;;;;;;5023858;28;19925;-65
2022/01/28 06:35:56;;;;;;;;;;;;;;;;;;5022972;28;19929;-65
2022/01/28 06:38:23;;;;;;;;;;;;;;;;;;5026526;28;19925;-64
2022/01/28 06:40:50;;;;;;;;;;;;;;;;;;5023722;28;19947;-64
2022/01/28 06:43:17;;;;;;;;;;;;;;;;;;5026322;28;19932;-64
2022/01/28 06:45:44;;;;;;;;;;;;;;;;;;5026079;28;19925;-64
2022/01/28 06:48:11;;;;;;;;;;;;;;;;;;5023541;28;20473;-64
2022/01/28 06:50:38;;;;;;;;;;;;;;;;;;5020931;28;20237;-65
2022/01/28 06:53:05;;;;;;;;;;;;;;;;;;5024364;28;19925;-65
2022/01/28 06:55:32;;;;;;;;;;;;;;;;;;5018229;28;19929;-65
2022/01/28 06:57:59;;;;;;;;;;;;;;;;;;5021605;28;21094;-65
2022/01/28 07:00:26;;;;;;;;;;;;;;;;;;5021074;28;19976;-65
2022/01/28 07:02:53;;;;;;;;;;;;;;;;;;5022657;28;19932;-65
2022/01/28 07:05:20;;;;;;;;;;;;;;;;;;5021335;28;19973;-65
2022/01/28 07:07:47;;;;;;;;;;;;;;;;;;5019409;28;20015;-65
2022/01/28 07:10:14;;;;;;;;;;;;;;;;;;5024383;28;19933;-65
2022/01/28 07:12:41;;;;;;;;;;;;;;;;;;5018213;28;20020;-65
2022/01/28 07:15:08;;;;;;;;;;;;;;;;;;5029490;28;20299;-65
2022/01/28 07:17:35;;;;;;;;;;;;;;;;;;5031692;28;19933;-64
2022/01/28 07:20:02;;;;;;;;;;;;;;;;;;5024351;28;19925;-64
2022/01/28 07:22:29;;;;;;;;;;;;;;;;;;5004359;28;19933;-64
2022/01/28 07:24:56;;;;;;;;;;;;;;;;;;5021675;28;19925;-64
2022/01/28 07:27:23;;;;;;;;;;;;;;;;;;5022200;28;19939;-63
2022/01/28 07:29:50;;;;;;;;;;;;;;;;;;5037617;22;19929;-64
2022/01/28 07:32:17;;;;;;;;;;;;;;;;;;5032221;28;19929;-64
2022/01/28 07:34:44;;;;;;;;;;;;;;;;;;5039613;28;19933;-64
2022/01/28 07:37:11;;;;;;;;;;;;;;;;;;5045585;28;19977;-66
2022/01/28 07:39:38;;;;;;;;;;;;;;;;;;5040276;28;19932;-66
2022/01/28 07:42:05;;;;;;;;;;;;;;;;;;5038761;28;20294;-66
2022/01/28 07:44:32;;;;;;;;;;;;;;;;;;5043568;28;20291;-66
2022/01/28 07:46:59;;;;;;;;;;;;;;;;;;5040020;28;19925;-66
2022/01/28 07:49:26;;;;;;;;;;;;;;;;;;5048363;28;19925;-66
2022/01/28 07:51:53;;;;;;;;;;;;;;;;;;5038183;28;20153;-66
2022/01/28 07:54:19;;;;;;;;;;;;;;;;;;5046128;28;20272;-66
2022/01/28 07:56:51;;;;;;;;;;;;;;;;;;5056021;28;19925;-66
2022/01/28 07:59:18;;;;;;;;;;;;;;;;;;5045435;28;19987;-64
2022/01/28 08:01:45;;;;;;;;;;;;;;;;;;5043157;28;19925;-64
2022/01/28 08:04:12;;;;;;;;;;;;;;;;;;5049844;28;19928;-65
2022/01/28 08:06:40;;;;;;;;;;;;;;;;;;5051629;28;19925;-65
2022/01/28 08:09:07;;;;;;;;;;;;;;;;;;5039582;28;19925;-65
2022/01/28 08:11:34;;;;;;;;;;;;;;;;;;5047972;28;19931;-65
2022/01/28 08:14:02;;;;;;;;;;;;;;;;;;5045774;28;19925;-64
2022/01/28 08:16:29;;;;;;;;;;;;;;;;;;5039735;28;19968;-66
2022/01/28 08:18:56;;;;;;;;;;;;;;;;;;5051561;28;20294;-65
2022/01/28 08:21:23;;;;;;;;;;;;;;;;;;5050861;28;20363;-65
2022/01/28 08:23:52;;;;;;;;;;;;;;;;;;5040823;28;19932;-65
2022/01/28 08:26:19;;;;;;;;;;;;;;;;;;5042981;28;19925;-65
2022/01/28 08:28:47;;;;;;;;;;;;;;;;;;5037507;28;19968;-66
2022/01/28 08:31:14;;;;;;;;;;;;;;;;;;5045869;28;19975;-65
2022/01/28 08:33:41;;;;;;;;;;;;;;;;;;5037912;28;19925;-65
2022/01/28 08:36:08;;;;;;;;;;;;;;;;;;5045395;28;19932;-66
2022/01/28 08:38:38;;;;;;;;;;;;;;;;;;5041255;28;19929;-65
2022/01/28 08:41:05;;;;;;;;;;;;;;;;;;5049181;28;20011;-65
2022/01/28 08:43:32;;;;;;;;;;;;;;;;;;5032775;28;20019;-65
2022/01/28 08:46:00;;;;;;;;;;;;;;;;;;5043315;28;19925;-65
2022/01/28 08:48:27;;;;;;;;;;;;;;;;;;5043472;28;20514;-65
2022/01/28 08:50:54;;;;;;;;;;;;;;;;;;5039795;28;19929;-65
2022/01/28 08:53:20;;;;;;;;;;;;;;;;;;5034064;28;19925;-65
2022/01/28 08:55:47;;;;;;;;;;;;;;;;;;5040959;28;20338;-65
2022/01/28 08:58:15;;;;;;;;;;;;;;;;;;5041849;28;19929;-65
2022/01/28 09:00:45;;;;;;;;;;;;;;;;;;5040699;28;20074;-65
2022/01/28 09:03:12;;;;;;;;;;;;;;;;;;5042004;28;19932;-65
2022/01/28 09:05:39;;;;;;;;;;;;;;;;;;5037743;28;20521;-65
2022/01/28 09:08:08;;;;;;;;;;;;;;;;;;5040537;28;19924;-65
2022/01/28 09:10:37;;;;;;;;;;;;;;;;;;5031060;28;20383;-66
2022/01/28 09:13:24;;;;;;;;;;;;;;;;;;5041699;28;19948;-66
2022/01/28 09:15:51;;;;;;;;;;;;;;;;;;5043676;28;19951;-66
2022/01/28 09:18:18;;;;;;;;;;;;;;;;;;5045328;28;19928;-66
2022/01/28 09:20:45;;;;;;;;;;;;;;;;;;5034642;28;19925;-65
2022/01/28 09:23:12;;;;;;;;;;;;;;;;;;5041758;28;20017;-67
2022/01/28 09:25:39;;;;;;;;;;;;;;;;;;5037329;28;19932;-66
2022/01/28 09:28:06;;;;;;;;;;;;;;;;;;5035146;28;20291;-66
2022/01/28 09:30:32;;;;;;;;;;;;;;;;;;5045090;28;19933;-66
2022/01/28 09:32:59;;;;;;;;;;;;;;;;;;5041024;28;19925;-66
2022/01/28 09:35:26;;;;;;;;;;;;;;;;;;5033248;28;19925;-67
2022/01/28 09:37:53;;;;;;;;;;;;;;;;;;5039458;28;19964;-66
2022/01/28 09:40:20;;;;;;;;;;;;;;;;;;5045185;28;19931;-66
2022/01/28 09:42:48;;;;;;;;;;;;;;;;;;5042846;28;19947;-65
2022/01/28 09:45:16;;;;;;;;;;;;;;;;;;5038868;28;20299;-67
2022/01/28 09:47:46;;;;;;;;;;;;;;;;;;5041546;28;20035;-67
2022/01/28 09:50:13;;;;;;;;;;;;;;;;;;5036596;28;19928;-65
2022/01/28 09:52:40;;;;;;;;;;;;;;;;;;5040619;28;19929;-65
2022/01/28 09:55:07;;;;;;;;;;;;;;;;;;5040514;28;19929;-66
2022/01/28 09:57:34;;;;;;;;;;;;;;;;;;5034333;28;19925;-65
2022/01/28 10:00:00;;;;;;;;;;;;;;;;;;5035361;28;20374;-65
2022/01/28 10:02:27;;;;;;;;;;;;;;;;;;5047074;28;19925;-66
2022/01/28 10:04:54;;;;;;;;;;;;;;;;;;5037272;28;19925;-66
2022/01/28 10:07:21;;;;;;;;;;;;;;;;;;5034553;28;20298;-66
2022/01/28 10:09:48;;;;;;;;;;;;;;;;;;5038773;28;19932;-66
2022/01/28 10:12:19;;;;;;;;;;;;;;;;;;5035910;28;20024;-66
2022/01/28 10:14:47;;;;;;;;;;;;;;;;;;5036762;28;19952;-66
2022/01/28 10:17:14;;;;;;;;;;;;;;;;;;5041961;28;20405;-66
2022/01/28 10:19:43;;;;;;;;;;;;;;;;;;5040477;28;19931;-65
2022/01/28 10:22:10;;;;;;;;;;;;;;;;;;5038366;28;19925;-66
2022/01/28 10:24:38;;;;;;;;;;;;;;;;;;5039787;28;20387;-65
2022/01/28 10:27:06;;;;;;;;;;;;;;;;;;5037915;28;20294;-65
2022/01/28 10:29:34;;;;;;;;;;;;;;;;;;5035823;28;20315;-65
2022/01/28 10:32:01;;;;;;;;;;;;;;;;;;5045324;28;19999;-66
2022/01/28 10:34:28;;;;;;;;;;;;;;;;;;5038268;28;19931;-66
2022/01/28 10:36:55;;;;;;;;;;;;;;;;;;5036121;28;19931;-66
2022/01/28 10:39:22;;;;;;;;;;;;;;;;;;5035426;28;19925;-66
2022/01/28 10:41:49;;;;;;;;;;;;;;;;;;5037218;28;20225;-66
2022/01/28 10:44:16;;;;;;;;;;;;;;;;;;5046846;28;19983;-66
2022/01/28 10:46:43;;;;;;;;;;;;;;;;;;5034493;28;19925;-66
2022/01/28 10:49:10;;;;;;;;;;;;;;;;;;5041236;28;19929;-65
2022/01/28 10:51:37;;;;;;;;;;;;;;;;;;5042881;28;20395;-65
2022/01/28 10:54:04;;;;;;;;;;;;;;;;;;5048013;28;19929;-65
2022/01/28 10:56:31;;;;;;;;;;;;;;;;;;5040642;28;19925;-65
2022/01/28 10:58:58;;;;;;;;;;;;;;;;;;5044970;28;20032;-65
2022/01/28 11:01:25;;;;;;;;;;;;;;;;;;5044867;28;20294;-66
2022/01/28 11:03:52;;;;;;;;;;;;;;;;;;5036395;28;19991;-66
2022/01/28 11:06:21;;;;;;;;;;;;;;;;;;5038157;28;19929;-67
2022/01/28 11:08:48;;;;;;;;;;;;;;;;;;5046021;28;19976;-66
2022/01/28 11:11:14;;;;;;;;;;;;;;;;;;5055004;28;19925;-66
2022/01/28 11:13:42;;;;;;;;;;;;;;;;;;5037144;28;19941;-66
2022/01/28 11:16:09;;;;;;;;;;;;;;;;;;5039422;28;20379;-66
2022/01/28 11:18:36;;;;;;;;;;;;;;;;;;5045386;28;19943;-66
2022/01/28 11:21:05;;;;;;;;;;;;;;;;;;5048554;28;19928;-66
2022/01/28 11:23:32;;;;;;;;;;;;;;;;;;5052462;28;19925;-68
2022/01/28 11:25:59;;;;;;;;;;;;;;;;;;5046642;28;19925;-66
2022/01/28 11:28:26;;;;;;;;;;;;;;;;;;5049760;28;19925;-67
2022/01/28 11:30:54;;;;;;;;;;;;;;;;;;5044245;28;19929;-66
2022/01/28 11:33:21;;;;;;;;;;;;;;;;;;5045282;28;19933;-66
2022/01/28 11:35:49;;;;;;;;;;;;;;;;;;5038629;28;20164;-66
2022/01/28 11:38:16;;;;;;;;;;;;;;;;;;5038968;28;20291;-66
2022/01/28 11:40:43;;;;;;;;;;;;;;;;;;5050692;28;19972;-66
2022/01/28 11:43:18;;;;;;;;;;;31.50;40.10;;;;;;5040358;28;20275;-66
2022/01/28 11:45:45;;;;;;;;;;;31.80;40.80;;;;;;5045596;28;19970;-66
2022/01/28 11:48:12;;;;;;;;;;;;;;;;;;5050553;28;20299;-66
2022/01/28 11:50:39;;;;;;;;;;;;;;;;;;5041834;28;19929;-66
2022/01/28 11:53:05;;;;;;;;;;;;;;;;;;5046812;28;19939;-66
2022/01/28 11:55:32;;;;;;;;;;;;;;;;;;5051322;28;20413;-66
2022/01/28 11:58:00;;;;;;;;;;;32.20;39.40;;;;;;5039707;28;19936;-66
2022/01/28 12:00:27;;;;;;;;;;;;;;;;;;5046723;28;20391;-66
2022/01/28 12:02:54;;;;;;;;;;;;;;;;;;5039851;28;19925;-66
2022/01/28 12:05:21;;;;;;;;;;;;;;;;;;5047376;28;19956;-66
2022/01/28 12:07:50;;;;;;;;;;;31.10;39.40;;;;;;5035620;28;20059;-66
2022/01/28 12:10:17;;;;;;;;;;;;;;;;;;5059180;28;20328;-66
2022/01/28 12:12:46;;;;;;;;;;;;;;;;;;5034057;28;19932;-66
2022/01/28 12:15:15;;;;;;;;;;;;;;;;;;5035352;28;19928;-66
2022/01/28 12:17:42;;;;;;;;;;;;;;;;;;5042156;28;19972;-66
2022/01/28 12:20:09;;;;;;;;;;;;;;;;;;5047391;28;19924;-66
2022/01/28 12:22:36;;;;;;;;;;;;;;;;;;5032877;28;19925;-66
2022/01/28 12:25:03;;;;;;;;;;;;;;;;;;5047346;28;19932;-66
2022/01/28 12:27:30;;;;;;;;;;;;;;;;;;5046309;28;19929;-66
2022/01/28 12:30:00;;;;;;;;;;;;;;;;;;5041353;28;19932;-66
2022/01/28 12:32:27;;;;;;;;;;;;;;;;;;5047180;28;19924;-66
2022/01/28 12:34:53;;;;;;;;;;;;;;;;;;5037068;28;19925;-66
2022/01/28 12:37:23;;;;;;;;;;;;;;;;;;5032993;28;19956;-66
2022/01/28 12:39:54;;;;;;;;;;;;;;;;;;5034651;28;19924;-66
2022/01/28 12:42:26;;;;;;;;;;;;;;;;;;5043198;28;19925;-66
2022/01/28 12:44:53;;;;;;;;;;;;;;;;;;5046289;28;20214;-65
2022/01/28 12:47:20;;;;;;;;;;;;;;;;;;5041240;28;19931;-66
2022/01/28 12:49:47;;;;;;;;;;;;;;;;;;5039735;28;19925;-66
2022/01/28 12:52:14;;;;;;;;;;;;;;;;;;5042492;28;20297;-66
2022/01/28 12:54:40;;;;;;;;;;;;;;;;;;5040962;28;19924;-66
2022/01/28 12:57:07;;;;;;;;;;;;;;;;;;5047351;28;19929;-66
2022/01/28 12:59:34;;;;;;;;;;;;;;;;;;5040402;28;19929;-67
2022/01/28 13:02:01;;;;;;;;;;;;;;;;;;5045099;28;19924;-66
2022/01/28 13:04:49;;;;;;;;;;;;;;;;;;5045085;28;19991;-65
2022/01/28 13:10:01;;;;;;;;;;;;;;;;;;5031389;28;20095;-65
2022/01/28 13:12:28;;;;;;;;;;;;;;;;;;5043987;28;19932;-66
2022/01/28 13:14:54;;;;;;;;;;;;;;;;;;5040100;28;20401;-65
2022/01/28 13:17:21;;;;;;;;;;;;;;;;;;5041857;28;19931;-64
2022/01/28 13:19:48;;;;;;;;;;;;;;;;;;5036644;28;19929;-65
2022/01/28 13:22:15;;;;;;;;;;;;;;;;;;5049103;28;19964;-64
2022/01/28 13:24:42;;;;;;;;;;;;;;;;;;5045861;28;20307;-66
2022/01/28 13:27:09;;;;;;;;;;;;;;;;;;5041344;28;19932;-63
2022/01/28 13:29:36;;;;;;;;;;;;;;;;;;5037488;28;20405;-64
2022/01/28 13:32:03;;;;;;;;;;;;;;;;;;5033354;22;19929;-66
2022/01/28 13:34:30;;;;;;;;;;;;;;;;;;5020456;28;19969;-67
2022/01/28 13:36:58;;;;;;;;;;;;;;;;;;5017669;28;20398;-67
2022/01/28 13:39:25;;;;;;;;;;;;;;;;;;5020847;28;19947;-67
2022/01/28 13:41:52;;;;;;;;;;;;;;;;;;5019694;28;20311;-67
2022/01/28 13:44:19;;;;;;;;;;;;;;;;;;5029393;28;19925;-67
2022/01/28 13:46:49;;;;;;;;;;;;;;;;;;5023033;28;19925;-67
2022/01/28 13:49:16;;;;;;;;;;;;;;;;;;5025422;28;20035;-67
2022/01/28 13:51:43;;;;;;;;;;;;;;;;;;5023530;28;19925;-67
2022/01/28 13:54:18;;;;;;;;;;;;;;;;;;5025425;28;20427;-67
2022/01/28 13:56:46;;;;;;;;;;;;;;;;;;5023348;28;19929;-67
2022/01/28 13:59:13;;;;;;;;;;;;;;;;;;5024098;28;19972;-67
2022/01/28 14:01:40;;;;;;;;;;;;;;;;;;5023742;28;20314;-68
2022/01/28 14:04:07;;;;;;;;;;;;;;;;;;5025913;28;19925;-68
2022/01/28 14:06:34;;;;;;;;;;;;;;;;;;5027503;28;19940;-67
2022/01/28 14:09:01;;;;;;;;;;;;;;;;;;5027268;28;19929;-67
2022/01/28 14:11:30;;;;;;;;;;;;;;;;;;5024957;28;19925;-67
2022/01/28 14:13:57;;;;;;;;;;;;;;;;;;5025174;28;19929;-68
2022/01/28 14:16:26;;;;;;;;;;;;;;;;;;5024548;28;19933;-68
2022/01/28 14:18:53;;;;;;;;;;;;;;;;;;5024356;28;20016;-68
2022/01/28 14:21:20;;;;;;;;;;;;;;;;;;5024546;28;19926;-68
2022/01/28 14:23:47;;;;;;;;;;;;;;;;;;5023360;28;19935;-67
2022/01/28 14:26:14;;;;;;;;;;;;;;;;;;5023345;28;19931;-67
2022/01/28 14:29:09;;;;;;;;;;;;;;;;;;5024841;28;19925;-67
2022/01/28 14:31:28;;;;;;;;;;;;;;;;;;5024878;28;19925;-70
2022/01/28 14:33:55;;;;;;;;;;;;;;;;;;5025402;28;20371;-67
2022/01/28 14:36:22;;;;;;;;;;;;;;;;;;5023101;28;19944;-67
2022/01/28 14:38:49;;;;;;;;;;;;;;;;;;5016539;28;19932;-68
2022/01/28 14:41:16;;;;;;;;;;;;;;;;;;5018396;28;19929;-67
2022/01/28 14:43:43;;;;;;;;;;;;;;;;;;5023343;28;19964;-67
2022/01/28 14:46:11;;;;;;;;;;;;;;;;;;5022343;28;19925;-67
2022/01/28 14:48:38;;;;;;;;;;;;;;;;;;5023726;28;19956;-66
2022/01/28 14:51:05;;;;;;;;;;;;;;;;;;5026447;28;19925;-68
2022/01/28 14:53:32;;;;;;;;;;;;;;;;;;5025334;28;19929;-67
2022/01/28 14:55:58;;;;;;;;;;;;;;;;;;5021311;28;19963;-68
2022/01/28 14:58:25;;;;;;;;;;;;;;;;;;5021543;28;19925;-67
2022/01/28 15:00:52;;;;;;;;;;;;;;;;;;5023415;28;19948;-68
2022/01/28 15:03:19;;;;;;;;;;;;;;;;;;5024234;28;19925;-68
2022/01/28 15:05:46;;;;;;;;;;;;;;;;;;5023617;28;19933;-68
2022/01/28 15:08:13;;;;;;;;;;;;;;;;;;5023428;28;19947;-68
2022/01/28 15:10:42;;;;;;;;;;;;;;;;;;5025131;28;20016;-67
2022/01/28 15:13:09;;;;;;;;;;;;;;;;;;5022321;28;20288;-67
2022/01/28 15:15:36;;;;;;;;;;;;;;;;;;5022094;28;19932;-66
2022/01/28 15:18:03;;;;;;;;;;;;;;;;;;5024229;28;19948;-67
2022/01/28 15:20:31;;;;;;;;;;;;;;;;;;5020956;28;20396;-67
2022/01/28 15:22:58;;;;;;;;;;;;;;;;;;5023497;28;19926;-68
2022/01/28 15:25:25;;;;;;;;;;;;;;;;;;5025765;28;19925;-68
2022/01/28 15:27:52;;;;;;;;;;;;;;;;;;5018726;28;19925;-67
2022/01/28 15:30:29;;;;;;;;;;;;;;;;;;5021778;28;20303;-68
2022/01/28 15:38:21;;;;;;;;;;;;;;;;;;5021145;28;20298;-66
2022/01/28 15:40:48;;;;;;;;;;;;;;;;;;5023022;28;19926;-66
2022/01/28 15:43:15;;;;;;;;;;;;;;;;;;5025754;28;19929;-65
2022/01/28 15:45:46;;;;;;;;;;;;;;;;;;5025654;28;19928;-67
2022/01/28 15:48:13;;;;;;;;;;;;;;;;;;5028286;28;19929;-68
2022/01/28 15:50:40;;;;;;;;;;;;;;;;;;5024975;28;20294;-67
2022/01/28 15:53:07;;;;;;;;;;;;;;;;;;5026196;28;19929;-68
2022/01/28 15:55:34;;;;;;;;;;;;;;;;;;5027980;28;19929;-66
2022/01/28 15:58:01;;;;;;;;;;;;;;;;;;5028056;28;19925;-66
2022/01/28 16:00:28;;;;;;;;;;;;;;;;;;5026879;28;19925;-66
2022/01/28 16:02:55;;;;;;;;;;;;;;;;;;5026488;28;19933;-68
2022/01/28 16:05:22;;;;;;;;;;;;;;;;;;5028031;28;19933;-68
2022/01/28 16:07:49;;;;;;;;;;;;;;;;;;5026547;28;20400;-68
2022/01/28 16:10:20;;;;;;;;;;;;;;;;;;5022955;28;19929;-66
2022/01/28 16:13:04;;;;;;;;;;;;;;;;;;5027226;28;20335;-67
2022/01/28 16:17:04;;;;;;;;;;;;;;;;;;5026905;28;20200;-66
2022/01/28 16:18:27;;;;;;;;;;;;;;;;;;5025345;28;20369;-67
2022/01/28 16:20:53;;;;;;;;;;;;;;;;;;5030133;28;20387;-67
2022/01/28 16:23:21;;;;;;;;;;;;;;;;;;5026328;28;19925;-67
2022/01/28 16:25:48;;;;;;;;;;;;;;;;;;5029092;28;19932;-65
2022/01/28 16:28:15;;;;;;;;;;;;;;;;;;5026739;28;19933;-67
2022/01/28 16:30:42;;;;;;;;;;;;;;;;;;5028413;28;20294;-67
2022/01/28 16:33:08;;;;;;;;;;;;;;;;;;5026022;28;19940;-67
2022/01/28 16:35:35;;;;;;;;;;;;;;;;;;5030713;28;20306;-68
2022/01/28 16:38:02;;;;;;;;;;;;;;;;;;5025753;28;20000;-67
2022/01/28 16:40:31;;;;;;;;;;;;;;;;;;5016846;28;19934;-67
2022/01/28 16:43:03;;;;;;;;;;;;;;;;;;5021681;28;19934;-67
2022/01/28 16:45:30;;;;;;;;;;;;;;;;;;5023606;28;20353;-67
2022/01/28 16:47:57;;;;;;;;;;;;;;;;;;5023284;28;19925;-67
2022/01/28 16:50:25;;;;;;;;;;;;;;;;;;5027335;28;19931;-67
2022/01/28 16:52:52;;;;;;;;;;;;;;;;;;5018941;28;19933;-67
2022/01/28 16:55:21;;;;;;;;;;;;;;;;;;5019506;28;19925;-67
2022/01/28 16:57:48;;;;;;;;;;;;;;;;;;5027663;28;19932;-67
2022/01/28 17:00:16;;;;;;;;;;;;;;;;;;5018751;28;19944;-65
2022/01/28 17:02:44;;;;;;;;;;;;;;;;;;5022611;28;19929;-65
2022/01/28 17:05:10;;;;;;;;;;;;;;;;;;5019440;28;20387;-65
2022/01/28 17:07:37;;;;;;;;;;;;;;;;;;5026705;28;20022;-64
2022/01/28 17:10:07;;;;;;;;;;;;;;;;;;5024862;28;19939;-64
2022/01/28 17:12:36;;;;;;;;;;;;;;;;;;5026789;28;19925;-65
2022/01/28 17:15:03;;;;;;;;;;;;;;;;;;5021037;28;19925;-66
2022/01/28 17:17:30;;;;;;;;;;;;;;;;;;5024137;28;20004;-65
2022/01/28 17:19:57;;;;;;;;;;;;;;;;;;5019972;28;20024;-66
2022/01/28 17:22:24;;;;;;;;;;;;;;;;;;5025431;28;20291;-65
2022/01/28 17:24:51;;;;;;;;;;;;;;;;;;5024714;28;19944;-65
2022/01/28 17:27:18;;;;;;;;;;;;;;;;;;5024437;28;19925;-66
2022/01/28 17:29:49;;;;;;;;;;;;;;;;;;5025208;28;20480;-66
2022/01/28 17:32:16;;;;;;;;;;;;;;;;;;5026518;28;19971;-65
2022/01/28 17:34:43;;;;;;;;;;;;;;;;;;5023958;28;19929;-66
2022/01/28 17:37:12;;;;;;;;;;;;;;;;;;5027408;28;19940;-65
2022/01/28 17:39:39;;;;;;;;;;;;;;;;;;5024437;28;19933;-65
2022/01/28 17:42:06;;;;;;;;;;;;;;;;;;5027540;28;19947;-65
2022/01/28 17:44:33;;;;;;;;;;;;;;;;;;5026072;28;19931;-65
2022/01/28 17:47:00;;;;;;;;;;;;;;;;;;5021878;28;20063;-65